Time;durP1;ratioP1;P1;durP2;ratioP2;P2;SDS_P1;SDS_P2;PMS_P1;PMS_P2;Temp;Humidity;BMP_temperature;BMP_pressure;BME280_temperature;BME280_humidity;BME280_pressure;Samples;Min_cycle;Max_cycle;Signal;HPM_P1;HPM_P2
2024/01/28 00:00:44;;;;;;;14.57;4.35;;;0.50;99.90;;;;;;5043916;28;20040;-74
2024/01/28 00:03:11;;;;;;;17.98;4.53;;;0.60;99.90;;;;;;5038519;28;20110;-74
2024/01/28 00:05:36;;;;;;;10.65;4.13;;;0.60;99.90;;;;;;5053518;28;20049;-74
2024/01/28 00:08:08;;;;;;;6.15;3.45;;;0.60;99.90;;;;;;5030785;28;20072;-74
2024/01/28 00:10:34;;;;;;;12.32;4.88;;;0.50;99.90;;;;;;5045985;28;20519;-74
2024/01/28 00:13:00;;;;;;;17.17;4.30;;;0.60;99.90;;;;;;5022381;28;20104;-74
2024/01/28 00:15:25;;;;;;;13.52;3.63;;;0.50;99.90;;;;;;5023140;28;20509;-74
2024/01/28 00:17:55;;;;;;;9.05;3.78;;;0.40;99.90;;;;;;5005397;28;20086;-74
2024/01/28 00:20:21;;;;;;;21.55;4.15;;;0.50;99.90;;;;;;5032998;28;20056;-75
2024/01/28 00:22:47;;;;;;;8.02;3.72;;;0.50;99.90;;;;;;5035978;28;20041;-74
2024/01/28 00:25:14;;;;;;;8.65;3.25;;;0.60;99.90;;;;;;5047929;28;20038;-75
2024/01/28 00:27:40;;;;;;;10.48;4.43;;;0.60;99.90;;;;;;5057154;28;20060;-74
2024/01/28 00:30:08;;;;;;;10.50;4.80;;;0.60;99.90;;;;;;5056379;28;20045;-74
2024/01/28 00:32:34;;;;;;;14.32;4.53;;;0.60;99.90;;;;;;5024270;28;20550;-74
2024/01/28 00:35:00;;;;;;;4.43;2.90;;;0.70;99.90;;;;;;5057226;28;20053;-74
2024/01/28 00:37:26;;;;;;;7.68;3.65;;;0.70;99.90;;;;;;5054361;28;20072;-74
2024/01/28 00:39:51;;;;;;;9.88;4.30;;;0.70;99.90;;;;;;5007638;28;20037;-74
2024/01/28 00:42:17;;;;;;;13.30;4.20;;;0.70;99.90;;;;;;5056467;28;20071;-74
2024/01/28 00:44:42;;;;;;;8.27;4.25;;;0.80;99.90;;;;;;5040172;28;20069;-74
2024/01/28 00:47:08;;;;;;;6.45;3.90;;;0.80;99.90;;;;;;5037027;28;20509;-75
2024/01/28 00:49:34;;;;;;;6.43;3.47;;;0.80;99.90;;;;;;5013083;28;21569;-75
2024/01/28 00:52:00;;;;;;;7.60;3.65;;;0.70;99.90;;;;;;5020293;28;20049;-74
2024/01/28 00:54:26;;;;;;;11.52;3.65;;;0.70;99.90;;;;;;5054029;28;20045;-74
2024/01/28 00:56:56;;;;;;;14.63;5.18;;;0.70;99.90;;;;;;5043639;28;20045;-74
2024/01/28 00:59:22;;;;;;;14.63;5.13;;;0.70;99.90;;;;;;5060538;28;20036;-75
2024/01/28 01:01:48;;;;;;;10.00;3.83;;;0.70;99.90;;;;;;5059462;28;20582;-74
2024/01/28 01:04:14;;;;;;;10.50;4.28;;;0.70;99.90;;;;;;5055394;28;20045;-74
2024/01/28 01:06:43;;;;;;;11.15;4.38;;;0.70;99.90;;;;;;5030406;28;20106;-74
2024/01/28 01:09:09;;;;;;;14.10;3.47;;;0.60;99.90;;;;;;5029408;28;20040;-74
2024/01/28 01:11:35;;;;;;;12.23;3.97;;;0.60;99.90;;;;;;5056273;28;20249;-74
2024/01/28 01:14:01;;;;;;;7.82;4.70;;;0.60;99.90;;;;;;5051701;28;20037;-74
2024/01/28 01:16:27;;;;;;;15.32;4.50;;;0.60;99.90;;;;;;5032953;28;20033;-74
2024/01/28 01:18:54;;;;;;;10.45;5.43;;;0.60;99.90;;;;;;5041988;28;20403;-74
2024/01/28 01:21:19;;;;;;;10.20;4.38;;;0.60;99.90;;;;;;5026608;28;20045;-74
2024/01/28 01:23:45;;;;;;;8.82;4.40;;;0.50;99.90;;;;;;5060255;28;20072;-74
2024/01/28 01:26:11;;;;;;;11.93;5.18;;;0.50;99.90;;;;;;5022642;28;20500;-74
2024/01/28 01:28:36;;;;;;;11.20;3.97;;;0.50;99.90;;;;;;5060966;28;20052;-74
2024/01/28 01:31:03;;;;;;;11.15;5.18;;;0.50;99.90;;;;;;5056344;28;20045;-74
2024/01/28 01:33:29;;;;;;;21.10;3.72;;;0.50;99.90;;;;;;5027751;28;20048;-74
2024/01/28 01:35:55;;;;;;;10.23;4.50;;;0.50;99.90;;;;;;5042611;28;20041;-74
2024/01/28 01:38:22;;;;;;;12.88;4.88;;;0.50;99.90;;;;;;5056887;28;20041;-74
2024/01/28 01:40:48;;;;;;;7.85;3.85;;;0.50;99.90;;;;;;5053348;28;20064;-74
2024/01/28 01:43:15;;;;;;;9.68;3.90;;;0.60;99.90;;;;;;5039834;28;20040;-75
2024/01/28 01:45:42;;;;;;;6.30;4.18;;;0.60;99.90;;;;;;5057452;28;20055;-75
2024/01/28 01:48:11;;;;;;;22.23;5.45;;;0.60;99.90;;;;;;5055959;28;20037;-74
2024/01/28 01:50:39;;;;;;;12.38;5.20;;;0.60;99.90;;;;;;5053191;28;20044;-74
2024/01/28 01:53:05;;;;;;;14.57;4.78;;;0.60;99.90;;;;;;5037347;28;20091;-74
2024/01/28 01:55:35;;;;;;;11.02;4.38;;;0.80;99.90;;;;;;5005123;28;20056;-75
2024/01/28 01:58:01;;;;;;;7.07;3.55;;;0.70;99.90;;;;;;5049262;28;20175;-74
2024/01/28 02:00:28;;;;;;;5.00;3.88;;;0.80;99.90;;;;;;5054414;28;20056;-74
2024/01/28 02:02:54;;;;;;;7.47;3.67;;;0.80;99.90;;;;;;5037715;28;20201;-75
2024/01/28 02:05:19;;;;;;;18.27;6.00;;;0.90;99.90;;;;;;5019883;28;20153;-74
2024/01/28 02:07:45;;;;;;;20.30;5.43;;;1.00;99.90;;;;;;5037510;28;20060;-75
2024/01/28 02:10:11;;;;;;;6.30;4.38;;;1.00;99.90;;;;;;5033881;28;20132;-75
2024/01/28 02:12:38;;;;;;;24.25;6.63;;;1.10;99.90;;;;;;5006489;28;20117;-74
2024/01/28 02:15:11;;;;;;;6.32;4.28;;;1.10;99.90;;;;;;5037633;28;20045;-75
2024/01/28 02:17:37;;;;;;;11.15;5.30;;;1.10;99.90;;;;;;5034802;28;20045;-75
2024/01/28 02:20:04;;;;;;;17.08;3.95;;;1.20;99.90;;;;;;5036761;28;20041;-75
2024/01/28 02:22:30;;;;;;;12.23;4.22;;;1.20;99.90;;;;;;5037492;28;20157;-75
2024/01/28 02:24:57;;;;;;;14.73;4.18;;;1.20;99.90;;;;;;5021315;28;20480;-75
2024/01/28 02:27:23;;;;;;;12.55;4.32;;;1.20;99.90;;;;;;5020400;28;20053;-75
2024/01/28 02:29:49;;;;;;;13.30;3.80;;;1.20;99.90;;;;;;5052176;28;20044;-75
2024/01/28 02:32:17;;;;;;;12.70;4.47;;;1.30;99.90;;;;;;5036762;28;20060;-74
2024/01/28 02:34:42;;;;;;;6.63;3.55;;;1.40;99.90;;;;;;5036796;28;20090;-75
2024/01/28 02:37:11;;;;;;;10.32;4.25;;;1.30;99.90;;;;;;5020892;28;20044;-74
2024/01/28 02:39:38;;;;;;;7.47;3.30;;;1.40;99.90;;;;;;5046251;28;20051;-74
2024/01/28 02:42:04;;;;;;;11.93;4.32;;;1.40;99.90;;;;;;5053835;28;20037;-75
2024/01/28 02:44:30;;;;;;;7.70;3.83;;;1.40;99.90;;;;;;5037570;28;20057;-74
2024/01/28 02:46:56;;;;;;;13.02;3.70;;;1.40;99.90;;;;;;5036534;28;20106;-75
2024/01/28 02:49:23;;;;;;;12.38;4.07;;;1.50;99.90;;;;;;5035934;28;20045;-74
2024/01/28 02:51:50;;;;;;;11.10;3.45;;;1.50;99.90;;;;;;5035342;28;20041;-74
2024/01/28 02:54:16;;;;;;;8.40;4.80;;;1.50;99.90;;;;;;5019389;28;20096;-74
2024/01/28 02:56:42;;;;;;;10.30;4.32;;;1.50;99.90;;;;;;5035974;28;20083;-74
2024/01/28 02:59:08;;;;;;;9.13;3.72;;;1.50;99.90;;;;;;5037001;28;20143;-75
2024/01/28 03:01:34;;;;;;;9.93;4.47;;;1.50;99.90;;;;;;5041095;28;20162;-74
2024/01/28 03:04:00;;;;;;;8.48;3.72;;;1.40;99.90;;;;;;5010860;28;20152;-74
2024/01/28 03:06:26;;;;;;;12.13;4.53;;;1.40;99.90;;;;;;5042774;28;20041;-74
2024/01/28 03:08:51;;;;;;;11.60;4.80;;;1.50;99.90;;;;;;5047913;28;20047;-74
2024/01/28 03:11:17;;;;;;;7.53;4.05;;;1.50;99.90;;;;;;5022694;28;20041;-74
2024/01/28 03:13:42;;;;;;;8.65;3.28;;;1.50;99.90;;;;;;5042122;28;20487;-74
2024/01/28 03:16:10;;;;;;;13.25;3.95;;;1.50;99.90;;;;;;5062149;28;20044;-74
2024/01/28 03:18:36;;;;;;;18.50;3.95;;;1.50;99.90;;;;;;5029076;28;20127;-74
2024/01/28 03:21:02;;;;;;;4.80;3.25;;;1.50;99.90;;;;;;5036392;28;20080;-74
2024/01/28 03:23:28;;;;;;;12.18;3.85;;;1.50;99.90;;;;;;5051055;28;20049;-74
2024/01/28 03:25:53;;;;;;;9.60;3.85;;;1.40;99.90;;;;;;5015052;28;20057;-74
2024/01/28 03:28:19;;;;;;;8.05;3.72;;;1.40;99.90;;;;;;5058351;28;20384;-74
2024/01/28 03:30:45;;;;;;;9.13;3.60;;;1.40;99.90;;;;;;5034792;28;20575;-74
2024/01/28 03:33:11;;;;;;;12.23;3.35;;;1.40;99.90;;;;;;5036405;28;20048;-74
2024/01/28 03:35:37;;;;;;;11.68;4.00;;;1.40;99.90;;;;;;5026126;28;20072;-74
2024/01/28 03:38:05;;;;;;;5.47;3.42;;;1.40;99.90;;;;;;5025407;28;20041;-74
2024/01/28 03:40:31;;;;;;;19.45;4.40;;;1.40;99.90;;;;;;5036878;28;20045;-74
2024/01/28 03:42:56;;;;;;;15.18;3.63;;;1.40;99.90;;;;;;5044430;28;20036;-75
2024/01/28 03:45:22;;;;;;;11.88;4.63;;;1.50;99.90;;;;;;5007808;28;20044;-74
2024/01/28 03:47:48;;;;;;;8.57;3.20;;;1.50;99.90;;;;;;5045136;28;20447;-74
2024/01/28 03:50:13;;;;;;;9.77;3.92;;;1.50;99.90;;;;;;5036598;28;20037;-74
2024/01/28 03:52:39;;;;;;;6.95;3.38;;;1.40;99.90;;;;;;5029925;28;20095;-74
2024/01/28 03:55:06;;;;;;;10.13;3.75;;;1.40;99.90;;;;;;5024306;28;20052;-74
2024/01/28 03:57:31;;;;;;;6.97;3.45;;;1.50;99.90;;;;;;5011302;28;20045;-74
2024/01/28 03:59:57;;;;;;;4.38;3.40;;;1.50;99.90;;;;;;5046870;28;20070;-74
2024/01/28 04:02:23;;;;;;;5.50;3.83;;;1.40;99.90;;;;;;5053560;28;20118;-74
2024/01/28 04:04:48;;;;;;;5.05;3.67;;;1.40;99.90;;;;;;5018806;28;20049;-73
2024/01/28 04:07:15;;;;;;;12.38;4.28;;;1.30;99.90;;;;;;5006624;28;20044;-74
2024/01/28 04:09:41;;;;;;;11.18;3.85;;;1.20;99.90;;;;;;5033217;28;20126;-74
2024/01/28 04:12:07;;;;;;;9.40;5.15;;;1.20;99.90;;;;;;5029276;28;20037;-74
2024/01/28 04:14:33;;;;;;;13.43;4.05;;;1.20;99.90;;;;;;5019826;28;20103;-74
2024/01/28 04:16:59;;;;;;;6.60;3.55;;;1.20;99.90;;;;;;5053230;28;20042;-74
2024/01/28 04:19:24;;;;;;;4.43;3.03;;;1.10;99.90;;;;;;5030864;28;20131;-74
2024/01/28 04:21:50;;;;;;;8.40;3.50;;;1.10;99.90;;;;;;5041079;28;20057;-74
2024/01/28 04:24:15;;;;;;;10.68;3.60;;;1.00;99.90;;;;;;5005698;28;20126;-74
2024/01/28 04:26:41;;;;;;;15.27;4.65;;;1.10;99.90;;;;;;5053798;28;20079;-74
2024/01/28 04:29:07;;;;;;;6.38;2.92;;;1.00;99.90;;;;;;5044574;28;20036;-74
2024/01/28 04:31:32;;;;;;;10.38;3.75;;;1.00;99.90;;;;;;5038850;28;20124;-74
2024/01/28 04:33:58;;;;;;;8.10;3.65;;;1.00;99.90;;;;;;5050323;28;20048;-74
2024/01/28 04:36:26;;;;;;;7.07;3.63;;;1.10;99.90;;;;;;5073364;28;20048;-74
2024/01/28 04:38:52;;;;;;;11.02;4.03;;;1.00;99.90;;;;;;5049104;28;20055;-74
2024/01/28 04:41:17;;;;;;;9.38;3.20;;;0.90;99.90;;;;;;5064393;28;20132;-74
2024/01/28 04:43:43;;;;;;;8.00;3.55;;;0.90;99.90;;;;;;5055665;28;20087;-74
2024/01/28 04:46:09;;;;;;;9.02;3.47;;;0.90;99.90;;;;;;5023896;28;20059;-74
2024/01/28 04:48:36;;;;;;;6.25;3.17;;;0.80;99.90;;;;;;5042461;28;20048;-74
2024/01/28 04:51:02;;;;;;;6.13;3.65;;;0.80;99.90;;;;;;5067057;28;20048;-74
2024/01/28 04:53:28;;;;;;;7.65;3.58;;;0.80;99.90;;;;;;5043520;28;20041;-74
2024/01/28 04:55:53;;;;;;;7.93;3.83;;;0.90;99.90;;;;;;5045061;28;20049;-74
2024/01/28 04:58:19;;;;;;;3.92;3.03;;;0.80;99.90;;;;;;5054547;28;20040;-74
2024/01/28 05:00:45;;;;;;;7.50;3.05;;;0.90;99.90;;;;;;5049854;28;20040;-74
2024/01/28 05:03:11;;;;;;;10.70;3.15;;;1.00;99.90;;;;;;5012772;28;20418;-74
2024/01/28 05:05:37;;;;;;;4.30;2.85;;;1.00;99.90;;;;;;5031199;28;20060;-74
2024/01/28 05:08:03;;;;;;;6.57;2.30;;;1.00;99.90;;;;;;5050126;28;20044;-74
2024/01/28 05:10:29;;;;;;;4.20;2.97;;;1.00;99.90;;;;;;5039172;28;20059;-74
2024/01/28 05:12:54;;;;;;;15.70;4.43;;;0.90;99.90;;;;;;5011323;28;20049;-74
2024/01/28 05:15:20;;;;;;;4.15;2.90;;;1.00;99.90;;;;;;5057933;28;20059;-74
2024/01/28 05:17:46;;;;;;;4.97;2.78;;;1.00;99.90;;;;;;5057397;28;20036;-74
2024/01/28 05:20:12;;;;;;;7.47;3.83;;;1.00;99.90;;;;;;5069780;28;20044;-74
2024/01/28 05:22:38;;;;;;;7.72;3.85;;;1.00;99.90;;;;;;5065897;28;20047;-74
2024/01/28 05:25:05;;;;;;;16.23;3.08;;;1.00;99.90;;;;;;5030449;28;20100;-74
2024/01/28 05:27:31;;;;;;;3.88;2.55;;;1.00;99.90;;;;;;5055404;28;20120;-74
2024/01/28 05:29:58;;;;;;;6.10;2.85;;;1.00;99.90;;;;;;5055955;28;20510;-74
2024/01/28 05:32:28;;;;;;;10.15;4.35;;;1.00;99.90;;;;;;5028935;28;20144;-74
2024/01/28 05:34:56;;;;;;;5.55;3.53;;;1.10;99.90;;;;;;5050838;28;20476;-74
2024/01/28 05:37:23;;;;;;;4.30;2.38;;;1.10;99.90;;;;;;5045763;28;20045;-74
2024/01/28 05:39:48;;;;;;;6.50;2.22;;;1.00;99.90;;;;;;5071826;28;20060;-74
2024/01/28 05:42:14;;;;;;;15.13;4.03;;;1.00;99.90;;;;;;5048625;28;20033;-74
2024/01/28 05:44:40;;;;;;;5.40;4.35;;;1.10;99.90;;;;;;5048219;28;20049;-74
2024/01/28 05:47:05;;;;;;;13.13;3.03;;;1.00;99.90;;;;;;5023281;28;20104;-74
2024/01/28 05:49:31;;;;;;;6.53;3.05;;;1.00;99.90;;;;;;5026364;28;20518;-74
2024/01/28 05:51:57;;;;;;;15.65;4.03;;;1.00;99.90;;;;;;5052932;28;20040;-74
2024/01/28 05:54:23;;;;;;;4.28;3.15;;;0.90;99.90;;;;;;5036617;28;20033;-74
2024/01/28 05:56:49;;;;;;;4.55;2.33;;;0.90;99.90;;;;;;5053203;28;20051;-74
2024/01/28 05:59:14;;;;;;;5.32;4.30;;;0.90;99.90;;;;;;5055261;28;20036;-74
2024/01/28 06:01:40;;;;;;;5.50;2.70;;;0.90;99.90;;;;;;5032611;28;20079;-74
2024/01/28 06:04:08;;;;;;;12.77;4.38;;;0.90;99.90;;;;;;5039808;28;20063;-74
2024/01/28 06:06:34;;;;;;;9.70;3.53;;;0.90;99.90;;;;;;5061068;28;20068;-74
2024/01/28 06:09:00;;;;;;;6.65;2.40;;;0.80;99.90;;;;;;5050637;28;20611;-74
2024/01/28 06:11:26;;;;;;;3.40;2.67;;;0.80;99.90;;;;;;5061484;28;20033;-74
2024/01/28 06:13:51;;;;;;;5.93;2.80;;;0.80;99.90;;;;;;5031580;28;20067;-74
2024/01/28 06:16:17;;;;;;;5.00;2.42;;;0.70;99.90;;;;;;5024359;28;20046;-74
2024/01/28 06:18:43;;;;;;;16.77;2.97;;;0.80;99.90;;;;;;5017266;28;20069;-74
2024/01/28 06:21:12;;;;;;;6.63;2.47;;;0.80;99.90;;;;;;5034500;28;20048;-74
2024/01/28 06:23:38;;;;;;;7.45;2.95;;;0.70;99.90;;;;;;5054764;28;20036;-74
2024/01/28 06:26:05;;;;;;;13.88;3.75;;;0.70;99.90;;;;;;5038252;28;20034;-74
2024/01/28 06:28:31;;;;;;;4.25;2.38;;;0.60;99.90;;;;;;5054297;28;20136;-74
2024/01/28 06:30:57;;;;;;;14.10;3.33;;;0.60;99.90;;;;;;5046968;28;20049;-74
2024/01/28 06:33:23;;;;;;;6.85;2.95;;;0.50;99.90;;;;;;5043619;28;20109;-74
2024/01/28 06:35:49;;;;;;;6.65;2.58;;;0.50;99.90;;;;;;5042596;28;20064;-74
2024/01/28 06:38:15;;;;;;;10.43;2.65;;;0.40;99.90;;;;;;5026785;28;20048;-74
2024/01/28 06:40:41;;;;;;;21.17;3.20;;;0.40;99.90;;;;;;5044339;28;20411;-74
2024/01/28 06:43:07;;;;;;;6.13;2.45;;;0.40;99.90;;;;;;5038455;28;20058;-74
2024/01/28 06:45:32;;;;;;;6.88;3.22;;;0.40;99.90;;;;;;5031202;28;20048;-74
2024/01/28 06:47:58;;;;;;;8.65;2.38;;;0.40;99.90;;;;;;5039672;28;20546;-74
2024/01/28 06:50:24;;;;;;;6.35;2.70;;;0.50;99.90;;;;;;5004986;28;20063;-74
2024/01/28 06:52:49;;;;;;;6.38;3.00;;;0.50;99.90;;;;;;5054548;28;20033;-74
2024/01/28 06:55:15;;;;;;;8.80;3.80;;;0.40;99.90;;;;;;5024416;28;20127;-74
2024/01/28 06:57:41;;;;;;;3.67;2.40;;;0.40;99.90;;;;;;5062318;28;20108;-74
2024/01/28 07:00:10;;;;;;;15.15;3.90;;;0.30;99.90;;;;;;5082945;28;20048;-74
2024/01/28 07:02:37;;;;;;;7.60;3.70;;;0.40;99.90;;;;;;5056498;28;20291;-74
2024/01/28 07:05:03;;;;;;;5.32;2.72;;;0.40;99.90;;;;;;5032811;28;20059;-74
2024/01/28 07:07:28;;;;;;;10.60;3.55;;;0.30;99.90;;;;;;5025372;28;20045;-75
2024/01/28 07:09:54;;;;;;;6.53;2.85;;;0.30;99.90;;;;;;5021295;28;20388;-75
2024/01/28 07:12:20;;;;;;;7.65;3.50;;;0.30;99.90;;;;;;5033305;28;20064;-74
2024/01/28 07:14:45;;;;;;;5.55;2.28;;;0.20;99.90;;;;;;5032254;28;20048;-74
2024/01/28 07:17:11;;;;;;;14.73;3.47;;;0.30;99.90;;;;;;5039560;28;20041;-74
2024/01/28 07:19:37;;;;;;;3.10;2.78;;;0.30;99.90;;;;;;5027929;28;20064;-74
2024/01/28 07:22:03;;;;;;;5.72;3.42;;;0.30;99.90;;;;;;5038794;28;20087;-74
2024/01/28 07:24:29;;;;;;;10.35;2.90;;;0.20;99.90;;;;;;5041809;28;20040;-74
2024/01/28 07:26:54;;;;;;;9.15;3.45;;;0.20;99.90;;;;;;5020674;28;20056;-74
2024/01/28 07:29:20;;;;;;;12.02;4.07;;;0.20;99.90;;;;;;5044998;28;20481;-74
2024/01/28 07:31:46;;;;;;;5.32;2.55;;;0.20;99.90;;;;;;5045364;28;20068;-74
2024/01/28 07:34:12;;;;;;;5.65;2.92;;;0.20;99.90;;;;;;5039044;28;20052;-74
2024/01/28 07:36:37;;;;;;;14.90;3.45;;;0.30;99.90;;;;;;5024691;28;20079;-74
2024/01/28 07:39:04;;;;;;;12.88;3.20;;;0.10;99.90;;;;;;5056428;28;20075;-74
2024/01/28 07:41:34;;;;;;;10.98;3.17;;;0.10;99.90;;;;;;5039970;28;20049;-74
2024/01/28 07:44:00;;;;;;;3.95;3.42;;;0.20;99.90;;;;;;5068452;28;20055;-74
2024/01/28 07:46:26;;;;;;;13.23;2.90;;;0.20;99.90;;;;;;5016977;28;20047;-74
2024/01/28 07:48:51;;;;;;;17.38;3.40;;;0.20;99.90;;;;;;5008334;28;20037;-74
2024/01/28 07:51:17;;;;;;;2.88;2.22;;;0.20;99.90;;;;;;5048064;28;20460;-74
2024/01/28 07:53:43;;;;;;;17.55;3.63;;;0.20;99.90;;;;;;5015676;28;20064;-75
2024/01/28 07:56:08;;;;;;;9.88;4.05;;;0.20;99.90;;;;;;5024071;28;20045;-75
2024/01/28 07:58:34;;;;;;;8.32;3.08;;;0.30;99.90;;;;;;5026811;28;20045;-74
2024/01/28 08:01:01;;;;;;;4.13;2.17;;;0.30;99.90;;;;;;5036471;28;20044;-74
2024/01/28 08:03:26;;;;;;;6.20;3.10;;;0.30;99.90;;;;;;5043043;28;20438;-74
2024/01/28 08:05:52;;;;;;;8.98;2.65;;;0.40;99.90;;;;;;5034841;28;20068;-74
2024/01/28 08:08:18;;;;;;;3.13;2.63;;;0.60;99.90;;;;;;5005603;28;20029;-74
2024/01/28 08:10:43;;;;;;;8.50;3.22;;;0.60;99.90;;;;;;5020525;28;20105;-74
2024/01/28 08:13:09;;;;;;;5.95;2.58;;;0.70;99.90;;;;;;5033729;28;20068;-74
2024/01/28 08:15:36;;;;;;;5.70;2.60;;;0.80;99.90;;;;;;5034352;28;20044;-74
2024/01/28 08:18:01;;;;;;;6.10;2.97;;;0.90;99.90;;;;;;5010552;28;20067;-74
2024/01/28 08:20:27;;;;;;;5.55;2.97;;;1.00;99.90;;;;;;5037336;28;20041;-74
2024/01/28 08:22:53;;;;;;;4.82;3.17;;;1.10;99.90;;;;;;5072557;28;20102;-80
2024/01/28 08:25:19;;;;;;;7.60;2.75;;;1.20;99.90;;;;;;5049978;28;20064;-74
2024/01/28 08:27:45;;;;;;;19.10;3.95;;;1.20;99.90;;;;;;5034222;28;20041;-74
2024/01/28 08:30:11;;;;;;;8.95;2.92;;;1.30;99.90;;;;;;5019216;28;20095;-74
2024/01/28 08:32:37;;;;;;;6.15;4.20;;;1.30;99.90;;;;;;5030124;28;20084;-74
2024/01/28 08:35:03;;;;;;;8.02;3.90;;;1.40;99.90;;;;;;5035294;28;20029;-75
2024/01/28 08:37:29;;;;;;;5.18;2.67;;;1.50;99.90;;;;;;5021393;28;20053;-75
2024/01/28 08:39:55;;;;;;;7.07;3.28;;;1.80;99.90;;;;;;5024741;28;20081;-73
2024/01/28 08:42:21;;;;;;;8.93;3.10;;;1.90;99.90;;;;;;5051959;28;20059;-73
2024/01/28 08:44:47;;;;;;;7.05;3.40;;;2.00;99.90;;;;;;5031900;28;20041;-73
2024/01/28 08:47:13;;;;;;;5.32;2.88;;;2.00;99.90;;;;;;5033530;28;20044;-73
2024/01/28 08:49:39;;;;;;;6.25;2.60;;;2.10;99.90;;;;;;5036976;28;20140;-73
2024/01/28 08:52:05;;;;;;;8.07;2.55;;;2.20;99.90;;;;;;5046186;28;20041;-72
2024/01/28 08:54:31;;;;;;;9.55;2.95;;;2.30;99.90;;;;;;5049938;28;20119;-73
2024/01/28 08:56:57;;;;;;;11.63;3.10;;;2.30;99.90;;;;;;5023769;28;20050;-73
2024/01/28 08:59:22;;;;;;;14.43;3.20;;;2.30;99.90;;;;;;5022370;28;20056;-73
2024/01/28 09:01:49;;;;;;;7.03;2.78;;;2.30;99.90;;;;;;5032897;28;20042;-73
2024/01/28 09:04:15;;;;;;;3.83;2.08;;;2.40;99.90;;;;;;5034174;28;20045;-73
2024/01/28 09:06:41;;;;;;;4.25;1.58;;;2.50;99.90;;;;;;5035237;28;20064;-73
2024/01/28 09:09:08;;;;;;;6.85;2.67;;;2.50;99.90;;;;;;5019651;28;20045;-73
2024/01/28 09:11:37;;;;;;;3.00;2.25;;;2.50;99.90;;;;;;5024168;28;20048;-73
2024/01/28 09:14:03;;;;;;;7.03;2.60;;;2.60;99.90;;;;;;5021096;28;20037;-73
2024/01/28 09:16:29;;;;;;;9.50;2.38;;;2.80;99.90;;;;;;5054526;28;20064;-72
2024/01/28 09:18:55;;;;;;;8.20;3.47;;;2.90;99.90;;;;;;5045141;28;20545;-73
2024/01/28 09:21:21;;;;;;;14.30;3.45;;;3.00;99.90;;;;;;5057046;28;20076;-73
2024/01/28 09:23:47;;;;;;;10.05;2.45;;;3.20;99.90;;;;;;5039705;28;20041;-73
2024/01/28 09:26:13;;;;;;;3.60;2.20;;;3.30;99.90;;;;;;5059372;28;20048;-73
2024/01/28 09:28:39;;;;;;;4.28;2.35;;;3.60;99.90;;;;;;5060923;28;20040;-73
2024/01/28 09:31:08;;;;;;;6.70;2.28;;;3.80;99.90;;;;;;5018185;28;20045;-73
2024/01/28 09:33:34;;;;;;;3.00;2.67;;;4.00;99.90;;;;;;5058089;28;20045;-74
2024/01/28 09:36:00;;;;;;;2.40;2.20;;;4.00;99.90;;;;;;5042490;28;20149;-73
2024/01/28 09:38:25;;;;;;;4.03;2.15;;;4.00;99.90;;;;;;5036930;28;20480;-73
2024/01/28 09:40:52;;;;;;;3.90;2.05;;;3.90;99.90;;;;;;5074685;28;20045;-74
2024/01/28 09:43:31;;;;;;;4.75;2.25;;;4.10;99.90;;;;;;5038247;28;20041;-74
2024/01/28 09:45:57;;;;;;;3.33;2.05;;;4.50;99.90;;;;;;5057652;28;20075;-74
2024/01/28 09:48:23;;;;;;;4.00;2.40;;;4.80;99.90;;;;;;5052649;28;20041;-74
2024/01/28 09:50:49;;;;;;;4.03;2.40;;;5.10;99.90;;;;;;5024066;28;20351;-74
2024/01/28 09:53:16;;;;;;;8.05;2.97;;;5.70;99.90;;;;;;5038090;28;20095;-74
2024/01/28 09:55:42;;;;;;;5.75;2.53;;;6.30;99.90;;;;;;5037711;28;20060;-73
2024/01/28 09:58:10;;;;;;;5.85;2.90;;;6.80;99.90;;;;;;5042138;28;20037;-74
2024/01/28 10:00:39;;;;;;;6.65;2.47;;;7.20;99.90;;;;;;5007644;28;20075;-74
2024/01/28 10:03:05;;;;;;;7.13;3.30;;;7.30;99.90;;;;;;5044191;28;20056;-74
2024/01/28 10:05:31;;;;;;;12.13;3.15;;;7.30;99.90;;;;;;5023919;28;20045;-74
2024/01/28 10:08:04;;;;;;;2.08;1.60;;;7.20;99.90;;;;;;5025152;28;20045;-74
2024/01/28 10:10:35;;;;;;;6.65;2.42;;;7.30;99.90;;;;;;5052702;28;20049;-73
2024/01/28 10:13:02;;;;;;;12.05;2.50;;;7.40;99.90;;;;;;5033360;28;20072;-73
2024/01/28 10:15:30;;;;;;;4.68;2.92;;;7.30;99.90;;;;;;5039793;28;20041;-73
2024/01/28 10:17:56;;;;;;;3.03;1.80;;;7.20;99.90;;;;;;5027066;28;20037;-73
2024/01/28 10:20:25;;;;;;;3.00;2.33;;;7.00;99.90;;;;;;5043074;28;20116;-73
2024/01/28 10:22:53;;;;;;;4.82;1.90;;;6.60;99.90;;;;;;5043624;28;20049;-73
2024/01/28 10:25:21;;;;;;;9.80;2.78;;;6.30;99.90;;;;;;5043807;28;20046;-73
2024/01/28 10:27:48;;;;;;;4.75;1.90;;;5.90;99.90;;;;;;5055150;28;20128;-73
2024/01/28 10:30:19;;;;;;;2.78;1.33;;;5.70;99.90;;;;;;5041159;28;20037;-73
2024/01/28 10:32:45;;;;;;;2.22;1.50;;;5.40;99.90;;;;;;5043070;28;20048;-73
2024/01/28 10:35:12;;;;;;;5.57;1.42;;;5.30;99.90;;;;;;5072197;28;20119;-73
2024/01/28 10:37:39;;;;;;;5.30;1.67;;;5.20;99.90;;;;;;5058487;28;20159;-73
2024/01/28 10:40:07;;;;;;;4.55;1.85;;;5.20;99.90;;;;;;5028791;28;20033;-73
2024/01/28 10:42:38;;;;;;;4.90;1.55;;;5.10;99.90;;;;;;5050539;28;20384;-73
2024/01/28 10:45:09;;;;;;;2.17;1.58;;;5.20;99.90;;;;;;5041766;28;20103;-73
2024/01/28 10:47:36;;;;;;;4.13;1.50;;;5.20;99.90;;;;;;5034919;28;20055;-72
2024/01/28 10:50:10;;;;;;;3.80;1.77;;;5.20;99.90;;;;;;5055277;28;20128;-73
2024/01/28 10:52:37;;;;;;;5.22;1.42;;;5.30;99.90;;;;;;5034865;28;20036;-73
2024/01/28 10:55:04;;;;;;;4.72;1.92;;;5.30;99.90;;;;;;5036599;28;20441;-72
2024/01/28 10:57:33;;;;;;;9.73;2.13;;;5.30;99.90;;;;;;5021211;28;20052;-73
2024/01/28 11:00:00;;;;;;;2.53;1.70;;;5.40;99.90;;;;;;5059663;28;20438;-73
2024/01/28 11:02:27;;;;;;;2.63;1.65;;;5.40;99.90;;;;;;5072648;28;20060;-73
2024/01/28 11:04:54;;;;;;;1.90;1.38;;;5.50;99.90;;;;;;5039814;28;20041;-73
2024/01/28 11:07:20;;;;;;;2.67;1.88;;;5.60;99.90;;;;;;5006808;28;20059;-73
2024/01/28 11:09:47;;;;;;;4.32;1.90;;;5.60;99.90;;;;;;5043655;28;20557;-73
2024/01/28 11:12:13;;;;;;;2.35;1.60;;;5.70;99.90;;;;;;5008381;28;20067;-73
2024/01/28 11:14:39;;;;;;;3.03;1.88;;;5.80;99.90;;;;;;5074873;28;20040;-72
2024/01/28 11:17:05;;;;;;;3.22;1.40;;;5.80;99.90;;;;;;5049930;28;20110;-73
2024/01/28 11:19:30;;;;;;;1.48;1.20;;;5.80;99.90;;;;;;5018411;28;20057;-73
2024/01/28 11:22:01;;;;;;;3.58;2.05;;;5.80;99.90;;;;;;5019813;28;20048;-85
2024/01/28 11:24:27;;;;;;;2.70;1.42;;;5.80;99.90;;;;;;5036474;28;20045;-83
2024/01/28 11:26:58;;;;;;;6.82;1.92;;;5.90;99.90;;;;;;5038797;28;20040;-84
2024/01/28 11:29:33;;;;;;;6.50;1.45;;;5.90;99.90;;;;;;5038460;28;20045;-84
2024/01/28 11:32:04;;;;;;;4.95;2.35;;;5.90;99.90;;;;;;5040128;28;20052;-85
2024/01/28 11:34:30;;;;;;;7.80;1.77;;;5.90;99.90;;;;;;5036300;28;20040;-84
2024/01/28 11:36:59;;;;;;;2.38;1.35;;;5.80;99.90;;;;;;5036668;28;20049;-83
2024/01/28 11:39:28;;;;;;;11.48;2.03;;;5.80;99.90;;;;;;5052063;28;20039;-84
2024/01/28 11:41:53;;;;;;;6.65;1.73;;;5.80;99.90;;;;;;5051165;28;20400;-83
2024/01/28 11:44:19;;;;;;;3.00;1.70;;;5.90;99.90;;;;;;5036384;28;20105;-83
2024/01/28 11:46:46;;;;;;;4.05;2.25;;;5.90;99.90;;;;;;5050114;28;20045;-85
2024/01/28 11:49:12;;;;;;;1.75;1.40;;;5.90;99.90;;;;;;5040007;28;20044;-85
2024/01/28 11:51:37;;;;;;;4.43;1.63;;;6.00;99.90;;;;;;5036506;28;20105;-85
2024/01/28 11:54:04;;;;;;;5.43;2.03;;;6.10;99.90;;;;;;5015503;28;20045;-85
2024/01/28 11:56:34;;;;;;;3.15;1.30;;;6.20;99.90;;;;;;5022086;28;20092;-85
2024/01/28 11:59:02;;;;;;;2.60;1.13;;;6.30;99.90;;;;;;5031435;28;20051;-84
2024/01/28 12:01:27;;;;;;;3.55;1.40;;;6.50;99.90;;;;;;5045279;28;20123;-84
2024/01/28 12:03:54;;;;;;;4.45;1.75;;;6.60;99.90;;;;;;5036616;28;20065;-84
2024/01/28 12:06:24;;;;;;;2.28;1.52;;;6.70;99.90;;;;;;5054608;28;20049;-84
2024/01/28 12:08:51;;;;;;;4.90;1.85;;;6.70;99.90;;;;;;5052755;28;20392;-84
2024/01/28 12:11:20;;;;;;;2.75;1.42;;;6.80;99.90;;;;;;5049688;28;20041;-85
2024/01/28 12:13:46;;;;;;;4.15;1.73;;;7.00;99.90;;;;;;5069923;28;20037;-84
2024/01/28 12:16:12;;;;;;;2.70;1.45;;;7.00;99.90;;;;;;5038834;28;20044;-84
2024/01/28 12:18:39;;;;;;;2.05;1.17;;;7.10;99.90;;;;;;5062310;28;20105;-84
2024/01/28 12:21:15;;;;;;;9.07;1.85;;;7.20;99.90;;;;;;5033145;28;20040;-85
2024/01/28 12:23:40;;;;;;;3.40;1.40;;;7.20;99.90;;;;;;5050681;28;20451;-84
2024/01/28 12:26:06;;;;;;;2.53;1.45;;;7.30;99.90;;;;;;5039479;28;20041;-85
2024/01/28 12:28:33;;;;;;;2.92;1.88;;;7.30;99.90;;;;;;5031200;28;20033;-84
2024/01/28 12:30:59;;;;;;;3.22;1.42;;;7.30;99.90;;;;;;5046098;28;20037;-84
2024/01/28 12:33:27;;;;;;;2.88;2.03;;;7.40;99.90;;;;;;5034921;28;20132;-84
2024/01/28 12:35:53;;;;;;;4.97;1.33;;;7.50;99.90;;;;;;5035594;28;20036;-84
2024/01/28 12:38:18;;;;;;;5.35;1.35;;;7.50;99.90;;;;;;5033699;28;20102;-84
2024/01/28 12:40:44;;;;;;;2.55;1.50;;;7.60;99.90;;;;;;5051894;28;20070;-84
2024/01/28 12:43:10;;;;;;;3.08;1.67;;;7.70;99.90;;;;;;5031806;28;20555;-85
2024/01/28 12:45:37;;;;;;;6.35;2.00;;;7.70;99.90;;;;;;5045396;28;20151;-90
2024/01/28 12:48:04;;;;;;;4.22;1.45;;;7.80;99.90;;;;;;5045120;28;20052;-91